Pemberville, Ohio
Current Conditions -  °F | °C
As of 7:53 PM on Monday 22 Dec 2014 (Local Time) from KTDZ Reporting Station
Haze Haze  
Wind Chill: 32°   Ceiling: 10000
Heat Index: 37°   Visibility: 6mi
Dew Point: 32°   Wind: 6mph
Humidity: 82%   Direction: 70°ENE
Pressure: 29.89"   Gusts: NA
Location:  41.41°N, 83.46°W
Report Text: KTDZ 230053Z AUTO 07005KT 6SM HZ BKN100 OVC110 03/00 A2989 RMK AO2 SLP127 T00280000 TSNO
Loading
Personal Weather Stations






























Interactive Weather Map New forecast layout! Learn more

10-Day Weather Forecast

Advertisements
Track Severe Weather on mobile